Time;durP1;ratioP1;P1;durP2;ratioP2;P2;SDS_P1;SDS_P2;PMS_P1;PMS_P2;Temp;Humidity;BMP_temperature;BMP_pressure;BME280_temperature;BME280_humidity;BME280_pressure;Samples;Min_cycle;Max_cycle;Signal;HPM_P1;HPM_P2
2022/11/24 00:01:50;;;;;;;14.38;11.30;;;25.70;99.90;;;;;;1863748;75;21160;-84
2022/11/24 00:04:25;;;;;;;15.83;11.45;;;25.60;99.90;;;;;;1884557;75;21098;-83
2022/11/24 00:06:58;;;;;;;14.85;10.40;;;25.70;99.90;;;;;;1878347;75;21227;-83
2022/11/24 00:09:29;;;;;;;12.95;10.20;;;25.70;99.90;;;;;;1816413;78;21186;-83
2022/11/24 00:12:00;;;;;;;12.73;9.43;;;25.70;99.90;;;;;;1865299;75;21052;-84
2022/11/24 00:14:31;;;;;;;14.18;10.05;;;25.70;99.90;;;;;;1859310;76;21157;-85
2022/11/24 00:17:02;;;;;;;15.00;10.68;;;25.70;99.90;;;;;;1867571;75;21186;-84
2022/11/24 00:19:33;;;;;;;13.80;9.45;;;25.70;99.90;;;;;;1892097;74;21341;-84
2022/11/24 00:22:04;;;;;;;14.55;10.10;;;25.80;99.90;;;;;;1870770;75;21067;-84
2022/11/24 00:24:37;;;;;;;12.88;10.58;;;25.80;99.90;;;;;;1880631;75;21632;-83
2022/11/24 00:27:10;;;;;;;16.82;11.83;;;25.80;99.90;;;;;;1882678;75;21269;-84
2022/11/24 00:29:41;;;;;;;15.08;9.73;;;25.80;99.90;;;;;;1865001;76;21190;-83
2022/11/24 00:32:12;;;;;;;12.58;9.55;;;25.80;99.90;;;;;;1861690;76;21154;-84
2022/11/24 00:34:44;;;;;;;17.30;10.50;;;25.90;99.90;;;;;;1856055;76;21150;-83
2022/11/24 00:37:17;;;;;;;12.00;9.18;;;25.90;99.90;;;;;;1867006;76;21220;-85
2022/11/24 00:39:48;;;;;;;12.73;8.63;;;25.90;99.90;;;;;;1874769;75;21084;-86
2022/11/24 00:42:24;;;;;;;11.28;8.68;;;25.90;99.90;;;;;;1774095;79;21258;-84
2022/11/24 00:44:55;;;;;;;15.48;8.33;;;25.90;99.90;;;;;;1844378;77;21178;-82
2022/11/24 00:47:27;;;;;;;11.50;7.90;;;25.90;99.90;;;;;;1850200;77;21209;-85
2022/11/24 00:50:00;;;;;;;12.70;8.58;;;25.90;99.90;;;;;;1849765;77;21076;-84
2022/11/24 00:52:32;;;;;;;10.25;8.80;;;25.90;99.90;;;;;;1810887;78;21253;-84
2022/11/24 00:55:05;;;;;;;13.62;7.47;;;25.90;99.90;;;;;;1796094;79;21150;-84
2022/11/24 00:57:37;;;;;;;11.70;6.62;;;25.90;99.90;;;;;;1810255;78;21265;-85
2022/11/24 01:00:09;;;;;;;12.80;8.90;;;25.90;99.90;;;;;;1816687;77;21176;-84
2022/11/24 01:02:40;;;;;;;11.70;8.90;;;25.90;99.90;;;;;;1876359;75;21153;-84
2022/11/24 01:05:11;;;;;;;14.18;9.15;;;25.90;99.90;;;;;;1869874;75;21155;-84
2022/11/24 01:07:44;;;;;;;14.73;10.23;;;25.90;99.90;;;;;;1865072;75;21550;-83
2022/11/24 01:10:15;;;;;;;13.05;8.20;;;25.90;99.90;;;;;;1873179;75;21087;-84
2022/11/24 01:12:46;;;;;;;16.17;8.98;;;25.90;99.90;;;;;;1888509;75;21868;-83
2022/11/24 01:15:18;;;;;;;9.10;7.70;;;25.90;99.90;;;;;;1891258;75;21158;-83
2022/11/24 01:17:51;;;;;;;12.65;8.95;;;25.90;99.90;;;;;;1888445;75;21098;-85
2022/11/24 01:20:22;;;;;;;14.60;11.20;;;26.00;99.90;;;;;;1880052;75;21134;-84
2022/11/24 01:22:53;;;;;;;17.85;14.45;;;26.00;99.90;;;;;;1789209;78;21185;-85
2022/11/24 01:25:27;;;;;;;13.43;10.95;;;26.00;99.90;;;;;;1817241;77;21760;-84
2022/11/24 01:28:01;;;;;;;10.45;8.05;;;25.90;99.90;;;;;;1881057;74;21173;-83
2022/11/24 01:30:35;;;;;;;12.37;8.25;;;26.00;99.90;;;;;;1856591;76;21131;-85
2022/11/24 01:33:09;;;;;;;18.12;13.38;;;26.00;99.90;;;;;;1869833;75;21949;-84
2022/11/24 01:35:41;;;;;;;18.05;12.10;;;26.00;99.90;;;;;;1866737;75;21209;-85
2022/11/24 01:38:12;;;;;;;11.25;7.78;;;26.00;99.90;;;;;;1870233;76;22801;-84
2022/11/24 01:40:43;;;;;;;16.70;10.35;;;26.00;99.90;;;;;;1854557;76;21653;-84
2022/11/24 01:43:21;;;;;;;16.27;11.38;;;26.00;99.90;;;;;;1878742;75;21491;-84
2022/11/24 01:45:53;;;;;;;18.70;10.70;;;26.00;99.90;;;;;;1881873;75;21123;-83
2022/11/24 01:48:26;;;;;;;21.15;14.30;;;26.00;99.90;;;;;;1885807;75;21035;-84
2022/11/24 01:51:01;;;;;;;18.23;13.10;;;26.00;99.90;;;;;;1867444;75;21221;-84
2022/11/24 01:53:34;;;;;;;17.37;10.82;;;26.00;99.90;;;;;;1865594;75;21170;-85
2022/11/24 01:56:06;;;;;;;15.50;10.32;;;26.00;99.90;;;;;;1862626;75;21267;-84
2022/11/24 01:58:41;;;;;;;17.67;12.75;;;26.00;99.90;;;;;;1870661;75;21208;-83
2022/11/24 02:01:15;;;;;;;20.57;10.67;;;26.00;99.90;;;;;;1894704;75;21122;-84
2022/11/24 02:03:48;;;;;;;17.05;9.88;;;26.00;99.90;;;;;;1897742;75;21076;-84
2022/11/24 02:06:22;;;;;;;10.10;8.20;;;26.00;99.90;;;;;;1861771;75;21186;-83
2022/11/24 02:09:04;;;;;;;10.72;7.67;;;26.00;99.90;;;;;;1855066;76;21157;-84
2022/11/24 02:11:38;;;;;;;17.82;9.83;;;26.00;99.90;;;;;;1871186;75;21162;-83
2022/11/24 02:14:11;;;;;;;19.23;11.10;;;26.00;99.90;;;;;;1873536;75;21218;-82
2022/11/24 02:16:46;;;;;;;19.23;10.10;;;26.00;99.90;;;;;;1882065;75;21207;-84
2022/11/24 02:19:41;;;;;;;16.40;9.35;;;26.00;99.90;;;;;;1880853;75;21878;-85
2022/11/24 02:22:33;;;;;;;14.87;7.53;;;26.00;99.90;;;;;;1865854;76;21170;-82
2022/11/24 02:25:19;;;;;;;8.08;5.95;;;26.00;99.90;;;;;;1848575;76;21673;-84
2022/11/24 02:27:51;;;;;;;7.30;4.75;;;25.90;99.90;;;;;;1864439;75;21212;-81
2022/11/24 02:30:23;;;;;;;7.08;4.08;;;25.90;99.90;;;;;;1816751;78;21573;-82
2022/11/24 02:32:54;;;;;;;8.53;3.90;;;25.90;99.90;;;;;;1829891;77;21500;-84
2022/11/24 02:35:27;;;;;;;7.65;4.20;;;25.90;99.90;;;;;;1865670;75;21250;-81
2022/11/24 02:37:58;;;;;;;5.95;4.08;;;25.80;99.90;;;;;;1851461;76;21077;-84
2022/11/24 02:40:33;;;;;;;7.67;4.17;;;25.80;99.90;;;;;;1881326;76;21154;-84
2022/11/24 02:43:06;;;;;;;9.10;4.03;;;25.80;99.90;;;;;;1851965;73;21589;-87
2022/11/24 02:45:37;;;;;;;6.78;4.10;;;25.80;99.90;;;;;;1853929;74;21158;-82
2022/11/24 02:48:09;;;;;;;5.80;4.17;;;25.80;99.90;;;;;;1857302;76;21248;-85
2022/11/24 02:50:40;;;;;;;6.00;3.55;;;25.70;99.90;;;;;;1858582;76;21131;-85
2022/11/24 02:53:15;;;;;;;8.83;3.80;;;25.70;99.90;;;;;;1861251;75;21689;-83
2022/11/24 02:55:48;;;;;;;8.30;3.77;;;25.70;99.90;;;;;;1856932;75;21245;-83
2022/11/24 02:58:19;;;;;;;7.90;3.83;;;25.70;99.90;;;;;;1857727;75;21174;-84
2022/11/24 03:00:53;;;;;;;6.80;3.83;;;25.70;99.90;;;;;;1843543;74;21106;-84
2022/11/24 03:03:22;;;;;;;7.28;3.37;;;25.70;99.90;;;;;;1853001;75;21242;-83
2022/11/24 03:05:53;;;;;;;7.92;2.80;;;25.70;99.90;;;;;;1882617;75;21137;-84
2022/11/24 03:08:26;;;;;;;6.10;3.12;;;25.70;99.90;;;;;;1860727;75;21171;-84
2022/11/24 03:10:58;;;;;;;4.90;2.47;;;25.70;99.90;;;;;;1838794;75;21165;-84
2022/11/24 03:13:29;;;;;;;7.97;2.67;;;25.70;99.90;;;;;;1833757;77;21598;-84
2022/11/24 03:16:01;;;;;;;3.98;2.17;;;25.70;99.90;;;;;;1855799;75;21103;-84
2022/11/24 03:18:34;;;;;;;6.22;2.30;;;25.60;99.90;;;;;;1826152;76;21300;-85
2022/11/24 03:21:05;;;;;;;3.85;2.30;;;25.60;99.90;;;;;;1843466;76;21170;-83
2022/11/24 03:23:36;;;;;;;5.83;3.10;;;25.60;99.90;;;;;;1842152;77;21095;-84
2022/11/24 03:26:15;;;;;;;6.25;3.30;;;25.60;99.90;;;;;;1839132;76;21101;-83
2022/11/24 03:28:46;;;;;;;5.08;2.42;;;25.60;99.90;;;;;;1838295;77;21127;-83
2022/11/24 03:31:17;;;;;;;5.08;2.50;;;25.70;99.90;;;;;;1860710;74;21140;-85
2022/11/24 03:33:51;;;;;;;3.80;2.30;;;25.60;99.90;;;;;;1872855;75;21199;-86
2022/11/24 03:36:22;;;;;;;5.30;2.55;;;25.60;99.90;;;;;;1882873;75;21101;-84
2022/11/24 03:38:53;;;;;;;4.33;2.47;;;25.60;99.90;;;;;;1845211;77;21197;-83
2022/11/24 03:41:31;;;;;;;4.80;3.30;;;25.70;99.90;;;;;;1843240;76;21134;-84
2022/11/24 03:44:03;;;;;;;5.80;2.90;;;25.70;99.90;;;;;;1865083;75;21123;-84
2022/11/24 03:46:34;;;;;;;4.37;2.65;;;25.70;99.90;;;;;;1835164;76;21905;-84
2022/11/24 03:49:07;;;;;;;5.30;2.85;;;25.70;99.90;;;;;;1776967;80;21075;-84
2022/11/24 03:51:38;;;;;;;5.35;3.00;;;25.70;99.90;;;;;;1826958;76;21153;-83
2022/11/24 03:54:09;;;;;;;3.70;2.55;;;25.70;99.90;;;;;;1837249;76;21131;-85
2022/11/24 03:56:41;;;;;;;7.15;2.80;;;25.70;99.90;;;;;;1846100;75;21190;-85
2022/11/24 03:59:15;;;;;;;4.78;3.12;;;25.70;99.90;;;;;;1875391;75;21163;-84
2022/11/24 04:01:47;;;;;;;4.95;3.02;;;25.70;99.90;;;;;;1866268;75;21656;-85
2022/11/24 04:04:49;;;;;;;3.50;2.70;;;25.70;99.90;;;;;;1862094;76;21126;-85
2022/11/24 04:07:18;;;;;;;6.95;3.52;;;25.70;99.90;;;;;;1871713;74;21121;-81
2022/11/24 04:09:49;;;;;;;5.72;3.22;;;25.70;99.90;;;;;;1859405;75;21127;-85
2022/11/24 04:15:15;;;;;;;7.35;3.50;;;25.70;99.90;;;;;;1849622;76;21191;-85
2022/11/24 04:17:50;;;;;;;6.55;3.85;;;25.80;99.90;;;;;;1859608;76;21179;-84
2022/11/24 04:20:21;;;;;;;5.85;3.50;;;25.90;99.90;;;;;;1836492;76;21126;-84
2022/11/24 04:23:00;;;;;;;5.70;3.30;;;25.90;99.90;;;;;;1842094;76;21830;-84
2022/11/24 04:25:31;;;;;;;4.75;3.15;;;25.90;99.90;;;;;;1866451;74;21185;-86
2022/11/24 04:28:03;;;;;;;4.75;3.10;;;26.00;99.90;;;;;;1867346;74;21205;-86
2022/11/24 04:30:34;;;;;;;4.78;3.00;;;26.00;99.90;;;;;;1845217;76;21135;-85
2022/11/24 04:33:05;;;;;;;5.05;3.87;;;25.90;99.90;;;;;;1864046;76;21095;-85
2022/11/24 04:35:38;;;;;;;4.08;2.90;;;26.00;99.90;;;;;;1855536;76;21067;-84
2022/11/24 04:38:12;;;;;;;3.77;2.27;;;25.90;99.90;;;;;;1852623;75;21151;-83
2022/11/24 04:40:43;;;;;;;3.75;2.50;;;25.90;99.90;;;;;;1850073;75;21091;-84
2022/11/24 04:43:17;;;;;;;3.87;2.75;;;25.90;99.90;;;;;;1870955;74;21192;-86
2022/11/24 04:45:49;;;;;;;4.35;2.90;;;25.90;99.90;;;;;;1846763;76;21112;-84
2022/11/24 04:48:21;;;;;;;4.60;3.55;;;25.90;99.90;;;;;;1839468;76;21174;-85
2022/11/24 04:50:53;;;;;;;4.75;4.05;;;25.90;99.90;;;;;;1863953;75;21153;-84
2022/11/24 04:53:30;;;;;;;5.85;4.37;;;25.90;99.90;;;;;;1841766;76;21221;-83
2022/11/24 04:56:09;;;;;;;5.97;3.08;;;25.90;99.90;;;;;;1833593;77;21113;-83
2022/11/24 04:58:40;;;;;;;6.70;3.50;;;25.90;99.90;;;;;;1840977;77;21232;-85
2022/11/24 05:01:12;;;;;;;5.92;3.42;;;26.00;99.90;;;;;;1845881;75;21610;-84
2022/11/24 05:03:45;;;;;;;5.00;3.00;;;26.00;99.90;;;;;;1851123;77;21637;-85
2022/11/24 05:06:16;;;;;;;4.10;2.52;;;26.00;99.90;;;;;;1851380;77;21059;-85
2022/11/24 05:08:50;;;;;;;3.62;2.95;;;26.00;99.90;;;;;;1840320;77;21225;-85
2022/11/24 05:11:21;;;;;;;4.83;2.98;;;26.00;99.90;;;;;;1854327;74;21171;-85
2022/11/24 05:13:54;;;;;;;4.70;2.60;;;26.00;99.90;;;;;;1859561;74;21137;-86
2022/11/24 05:16:25;;;;;;;4.60;2.90;;;26.00;99.90;;;;;;1854087;75;21306;-84
2022/11/24 05:18:56;;;;;;;4.58;2.90;;;26.00;99.90;;;;;;1856684;75;21193;-86
2022/11/24 05:21:27;;;;;;;3.85;2.85;;;26.00;99.90;;;;;;1853508;76;21146;-85
2022/11/24 05:23:58;;;;;;;3.55;2.80;;;26.10;99.90;;;;;;1864301;75;21139;-86
2022/11/24 05:26:34;;;;;;;6.67;3.08;;;26.00;99.90;;;;;;1865233;74;21066;-85
2022/11/24 05:29:05;;;;;;;4.55;2.87;;;26.10;99.90;;;;;;1894044;74;21058;-87
2022/11/24 05:31:39;;;;;;;4.50;2.85;;;26.10;99.90;;;;;;1860808;76;21220;-85
2022/11/24 05:34:15;;;;;;;4.35;3.08;;;26.20;99.90;;;;;;1850341;75;21150;-84
2022/11/24 05:36:55;;;;;;;6.47;3.92;;;26.20;99.90;;;;;;1855922;76;21125;-86
2022/11/24 05:39:45;;;;;;;4.60;3.35;;;26.20;99.90;;;;;;1855123;76;21181;-86
2022/11/24 05:42:39;;;;;;;5.95;3.87;;;26.30;99.90;;;;;;1884211;75;21195;-85
2022/11/24 05:45:21;;;;;;;5.80;3.95;;;26.40;99.90;;;;;;1830123;77;21165;-85
2022/11/24 05:47:53;;;;;;;4.97;3.33;;;26.50;99.90;;;;;;1858447;76;21538;-86
2022/11/24 05:50:41;;;;;;;5.08;3.47;;;26.60;99.90;;;;;;1818695;77;21500;-84
2022/11/24 05:53:08;;;;;;;6.53;3.70;;;26.70;99.90;;;;;;1867942;76;21263;-84
2022/11/24 05:55:41;;;;;;;6.90;3.22;;;26.80;99.90;;;;;;1878897;74;21163;-86
2022/11/24 05:58:17;;;;;;;4.55;3.47;;;26.80;99.90;;;;;;1868534;75;21203;-85
2022/11/24 06:00:50;;;;;;;5.80;3.42;;;26.90;99.90;;;;;;1862754;75;21645;-86
2022/11/24 06:03:46;;;;;;;5.47;3.73;;;27.00;99.90;;;;;;1841205;76;21161;-84
2022/11/24 06:06:07;;;;;;;3.98;3.33;;;27.00;99.90;;;;;;1861645;75;21705;-85
2022/11/24 06:08:43;;;;;;;5.53;3.80;;;27.10;99.90;;;;;;1872882;75;21173;-84
2022/11/24 06:11:18;;;;;;;5.42;3.52;;;27.20;99.90;;;;;;1853777;75;21184;-82
2022/11/24 06:13:53;;;;;;;5.37;3.87;;;27.20;99.90;;;;;;1851429;76;21242;-85
2022/11/24 06:16:24;;;;;;;6.08;3.27;;;27.40;99.90;;;;;;1862920;75;21166;-84
2022/11/24 06:18:55;;;;;;;5.55;3.20;;;27.50;99.90;;;;;;1857083;76;21123;-83
2022/11/24 06:21:30;;;;;;;4.62;3.12;;;27.60;99.90;;;;;;1857736;76;21145;-82
2022/11/24 06:24:02;;;;;;;3.87;2.85;;;27.70;99.90;;;;;;1853870;76;21153;-82
2022/11/24 06:26:34;;;;;;;6.40;3.22;;;27.80;99.90;;;;;;1856730;76;21082;-82
2022/11/24 06:29:05;;;;;;;3.85;2.62;;;27.80;99.90;;;;;;1865767;76;21126;-81
2022/11/24 06:31:39;;;;;;;4.45;2.92;;;27.80;99.30;;;;;;1865651;76;21110;-83
2022/11/24 06:34:12;;;;;;;4.37;2.85;;;27.90;99.40;;;;;;1856690;76;21223;-82
2022/11/24 06:36:44;;;;;;;4.75;2.70;;;27.90;99.10;;;;;;1851645;76;21117;-82
2022/11/24 06:39:23;;;;;;;5.70;2.58;;;27.90;98.20;;;;;;1868377;76;21117;-83
2022/11/24 06:41:57;;;;;;;4.92;2.60;;;28.00;98.50;;;;;;1866022;76;21176;-82
2022/11/24 06:44:29;;;;;;;5.40;3.00;;;28.10;98.40;;;;;;1865565;76;21661;-82
2022/11/24 06:47:01;;;;;;;5.12;2.67;;;28.10;98.50;;;;;;1864358;76;21067;-83
2022/11/24 06:49:39;;;;;;;4.17;2.60;;;28.20;97.90;;;;;;1863717;76;21223;-82
2022/11/24 06:52:12;;;;;;;5.50;3.27;;;28.30;98.00;;;;;;1870536;76;21089;-82
2022/11/24 06:54:43;;;;;;;6.40;4.00;;;28.40;98.10;;;;;;1851170;76;21066;-83
2022/11/24 06:57:16;;;;;;;7.87;2.72;;;28.50;97.90;;;;;;1861595;76;21071;-84
2022/11/24 06:59:47;;;;;;;5.05;3.12;;;28.50;97.60;;;;;;1865920;76;21146;-81
2022/11/24 07:02:18;;;;;;;5.30;2.98;;;28.50;97.20;;;;;;1858196;76;21617;-84
2022/11/24 07:04:49;;;;;;;4.75;2.83;;;28.60;97.50;;;;;;1858882;76;21139;-84
2022/11/24 07:07:26;;;;;;;7.35;3.30;;;28.70;97.20;;;;;;1856062;76;21203;-83
2022/11/24 07:10:05;;;;;;;4.67;3.20;;;28.70;97.00;;;;;;1861567;76;21203;-81
2022/11/24 07:12:39;;;;;;;7.90;2.98;;;28.70;96.90;;;;;;1858152;76;21094;-82
2022/11/24 07:15:11;;;;;;;5.78;3.30;;;28.70;96.90;;;;;;1868308;76;21180;-84
2022/11/24 07:17:43;;;;;;;4.70;2.87;;;28.70;96.90;;;;;;1867234;75;21176;-83
2022/11/24 07:20:17;;;;;;;4.90;2.70;;;28.70;97.20;;;;;;1869857;76;21179;-82
2022/11/24 07:22:50;;;;;;;3.55;2.60;;;28.70;97.00;;;;;;1874355;76;21082;-84
2022/11/24 07:25:21;;;;;;;5.10;3.15;;;28.80;97.00;;;;;;1873251;76;21102;-83
2022/11/24 07:27:57;;;;;;;7.35;4.00;;;28.80;97.30;;;;;;1868925;76;21566;-84
2022/11/24 07:30:29;;;;;;;4.50;2.42;;;28.80;97.10;;;;;;1839649;76;21071;-83
2022/11/24 07:33:01;;;;;;;3.62;2.80;;;28.80;96.90;;;;;;1852500;76;21086;-82
2022/11/24 07:35:31;;;;;;;4.20;3.00;;;28.90;96.80;;;;;;1843902;76;21687;-84
2022/11/24 07:38:03;;;;;;;4.03;2.60;;;28.90;96.70;;;;;;1862218;76;21223;-83
2022/11/24 07:40:34;;;;;;;4.15;2.55;;;28.90;96.70;;;;;;1867619;75;21152;-83
2022/11/24 07:43:07;;;;;;;6.25;3.25;;;28.90;96.50;;;;;;1857083;74;21201;-84
2022/11/24 07:45:38;;;;;;;6.10;3.05;;;28.80;96.60;;;;;;1851382;76;21195;-83
2022/11/24 07:48:10;;;;;;;5.97;3.02;;;28.90;97.00;;;;;;1859590;75;21082;-84
2022/11/24 07:50:42;;;;;;;5.03;2.80;;;28.90;96.70;;;;;;1862833;74;21152;-83
2022/11/24 07:53:14;;;;;;;4.25;2.65;;;28.80;96.40;;;;;;1855535;75;21161;-85
2022/11/24 07:55:46;;;;;;;4.62;3.17;;;28.80;96.30;;;;;;1865053;75;21168;-83
2022/11/24 07:58:17;;;;;;;4.22;2.85;;;28.80;96.50;;;;;;1872284;75;21632;-83
2022/11/24 08:00:48;;;;;;;4.95;3.42;;;28.80;96.40;;;;;;1886494;75;21153;-84
2022/11/24 08:03:19;;;;;;;4.78;2.75;;;28.70;96.50;;;;;;1866489;74;21165;-84
2022/11/24 08:05:58;;;;;;;5.22;3.08;;;28.80;96.60;;;;;;1851722;76;21247;-82
2022/11/24 08:08:35;;;;;;;3.55;2.72;;;28.70;96.60;;;;;;1850383;76;22000;-84
2022/11/24 08:11:11;;;;;;;3.90;2.98;;;28.70;96.60;;;;;;1870332;74;21222;-83
2022/11/24 08:13:42;;;;;;;4.78;2.90;;;28.70;96.50;;;;;;1867782;76;21621;-84
2022/11/24 08:16:16;;;;;;;4.15;3.10;;;28.70;96.40;;;;;;1855684;76;21106;-83
2022/11/24 08:18:54;;;;;;;3.87;3.08;;;28.60;96.30;;;;;;1820206;76;21104;-82
2022/11/24 08:21:25;;;;;;;5.62;3.20;;;28.60;96.70;;;;;;1846619;76;21088;-83
2022/11/24 08:23:59;;;;;;;5.87;3.05;;;28.60;96.70;;;;;;1829605;77;21235;-84
2022/11/24 08:26:35;;;;;;;7.17;3.08;;;28.60;96.60;;;;;;1853596;74;21108;-84
2022/11/24 08:29:06;;;;;;;4.58;3.00;;;28.60;96.70;;;;;;1880084;74;21223;-82
2022/11/24 08:31:38;;;;;;;3.72;2.70;;;28.50;96.60;;;;;;1879833;75;21207;-82
2022/11/24 08:34:11;;;;;;;6.05;3.00;;;28.50;96.50;;;;;;1876766;75;21091;-84
2022/11/24 08:36:42;;;;;;;5.33;3.00;;;28.50;97.30;;;;;;1867862;75;21656;-85
2022/11/24 08:39:13;;;;;;;5.75;3.10;;;28.40;96.80;;;;;;1877121;75;21109;-83
2022/11/24 08:41:44;;;;;;;4.97;3.33;;;28.40;96.80;;;;;;1858343;76;21198;-82
2022/11/24 08:44:19;;;;;;;;;;;28.40;96.90;;;;;;1865772;76;21161;-83
2022/11/24 08:46:50;;;;;;;5.15;2.72;;;28.40;97.00;;;;;;1857889;76;20276;-83
2022/11/24 08:49:25;;;;;;;3.92;2.67;;;28.30;97.10;;;;;;1880824;74;21162;-82
2022/11/24 08:51:58;;;;;;;3.92;2.80;;;28.30;97.00;;;;;;1855549;75;21567;-83
2022/11/24 08:54:29;;;;;;;5.53;3.40;;;28.30;97.00;;;;;;1865144;75;21215;-84
2022/11/24 08:57:01;;;;;;;4.28;3.27;;;28.30;97.10;;;;;;1880904;73;21655;-83
2022/11/24 08:59:32;;;;;;;6.08;4.12;;;28.20;97.10;;;;;;1867702;73;21095;-83
2022/11/24 09:02:03;;;;;;;5.85;3.25;;;28.20;97.00;;;;;;1856755;76;21266;-83
2022/11/24 09:04:35;;;;;;;4.75;2.95;;;28.20;97.20;;;;;;1855426;76;21126;-83
2022/11/24 09:07:07;;;;;;;4.72;3.12;;;28.20;97.20;;;;;;1821310;78;21228;-83
2022/11/24 09:09:38;;;;;;;4.65;3.15;;;28.20;97.80;;;;;;1867420;76;21114;-83
2022/11/24 09:12:10;;;;;;;7.87;3.85;;;28.20;97.20;;;;;;1857959;76;21593;-82
2022/11/24 09:14:42;;;;;;;3.80;3.20;;;28.20;97.20;;;;;;1858715;76;21156;-84
2022/11/24 09:17:16;;;;;;;6.83;3.10;;;28.20;97.30;;;;;;1850845;76;21157;-83
2022/11/24 09:19:49;;;;;;;5.55;3.40;;;28.20;97.40;;;;;;1856665;76;21206;-84
2022/11/24 09:22:20;;;;;;;8.58;3.42;;;28.20;97.40;;;;;;1857416;76;21070;-83
2022/11/24 09:24:51;;;;;;;6.25;3.37;;;28.20;97.40;;;;;;1870468;76;21147;-83
2022/11/24 09:27:22;;;;;;;4.25;3.33;;;28.20;97.50;;;;;;1843307;76;21120;-83
2022/11/24 09:29:53;;;;;;;5.05;3.58;;;28.20;97.50;;;;;;1826488;77;21194;-83
2022/11/24 09:32:24;;;;;;;7.55;3.67;;;28.20;97.60;;;;;;1874178;75;21141;-83
2022/11/24 09:34:55;;;;;;;4.90;3.20;;;28.20;97.60;;;;;;1870372;75;21135;-83
2022/11/24 09:37:26;;;;;;;6.65;3.85;;;28.20;97.40;;;;;;1865924;75;21169;-82
2022/11/24 09:39:59;;;;;;;7.42;3.15;;;28.20;97.30;;;;;;1862412;75;21152;-82
2022/11/24 09:42:45;;;;;;;4.53;3.30;;;28.20;97.20;;;;;;1858108;76;21587;-82
2022/11/24 09:45:22;;;;;;;4.53;2.87;;;28.10;97.10;;;;;;1852805;76;21165;-82
2022/11/24 09:48:06;;;;;;;6.90;3.50;;;28.10;97.00;;;;;;1875605;75;21141;-84
2022/11/24 09:50:39;;;;;;;4.30;3.37;;;28.10;97.00;;;;;;1825666;76;21146;-84
2022/11/24 09:53:40;;;;;;;6.28;3.08;;;28.10;97.10;;;;;;1818234;77;21650;-84
2022/11/24 09:56:27;;;;;;;6.15;4.15;;;28.10;97.10;;;;;;1803107;77;21792;-83
2022/11/24 09:59:06;;;;;;;6.57;3.57;;;28.10;97.10;;;;;;1863235;75;21731;-85
2022/11/24 10:01:43;;;;;;;5.20;3.17;;;28.00;97.10;;;;;;1871739;76;21611;-86
2022/11/24 10:04:29;;;;;;;6.27;3.37;;;28.00;97.00;;;;;;1858271;76;21137;-84
2022/11/24 10:07:05;;;;;;;5.08;3.70;;;28.00;97.10;;;;;;1850488;76;21101;-84
2022/11/24 10:09:45;;;;;;;6.28;2.98;;;28.00;97.00;;;;;;1854464;75;21212;-85
2022/11/24 10:12:36;;;;;;;6.15;3.35;;;28.00;97.00;;;;;;1872245;76;21138;-84
2022/11/24 10:15:12;;;;;;;8.85;3.62;;;28.00;97.00;;;;;;1867587;75;21246;-82
2022/11/24 10:17:49;;;;;;;6.83;3.95;;;28.00;97.00;;;;;;1870323;75;21578;-82
2022/11/24 10:20:43;;;;;;;9.90;3.50;;;27.90;97.00;;;;;;1853264;76;21186;-84
2022/11/24 10:23:36;;;;;;;5.67;3.33;;;27.90;96.90;;;;;;1848024;74;21133;-85
2022/11/24 10:26:10;;;;;;;9.45;3.30;;;27.90;96.90;;;;;;1854438;76;21244;-84
2022/11/24 10:28:44;;;;;;;5.42;3.50;;;27.90;96.90;;;;;;1863140;76;21153;-84
2022/11/24 10:31:30;;;;;;;8.63;4.20;;;27.90;96.90;;;;;;1874605;74;21077;-83
2022/11/24 10:34:16;;;;;;;7.25;3.55;;;27.90;96.90;;;;;;1876526;74;21147;-82
2022/11/24 10:37:08;;;;;;;6.65;3.60;;;27.90;97.00;;;;;;1859889;76;21062;-83
2022/11/24 10:39:56;;;;;;;6.47;3.10;;;27.90;97.20;;;;;;1867078;74;22184;-86
2022/11/24 10:42:31;;;;;;;5.53;3.98;;;27.90;97.30;;;;;;1864174;75;21211;-83
2022/11/24 10:45:07;;;;;;;7.05;3.98;;;27.80;97.40;;;;;;1868224;76;21125;-83
2022/11/24 10:47:39;;;;;;;10.03;4.40;;;27.80;97.40;;;;;;1854943;76;21298;-82
2022/11/24 10:50:18;;;;;;;7.08;4.67;;;27.80;97.60;;;;;;1869812;74;21153;-84
2022/11/24 10:53:08;;;;;;;7.83;3.80;;;27.80;97.80;;;;;;1844253;76;21242;-83
2022/11/24 10:55:56;;;;;;;7.05;4.25;;;27.80;97.80;;;;;;1856244;76;21186;-84
2022/11/24 10:58:36;;;;;;;7.95;4.70;;;27.80;97.90;;;;;;1858296;76;21177;-83
2022/11/24 11:01:19;;;;;;;12.13;4.90;;;27.70;97.90;;;;;;1857450;76;21701;-85
2022/11/24 11:03:58;;;;;;;10.58;5.03;;;27.70;97.90;;;;;;1848805;76;21749;-83
2022/11/24 11:06:31;;;;;;;7.83;5.37;;;27.70;98.00;;;;;;1850745;75;21259;-84
2022/11/24 11:09:12;;;;;;;5.95;4.60;;;27.70;98.50;;;;;;1872271;75;21149;-83
2022/11/24 11:11:43;;;;;;;7.72;5.03;;;27.70;98.20;;;;;;1874872;74;21150;-82
2022/11/24 11:14:32;;;;;;;8.75;5.15;;;27.70;98.20;;;;;;1863520;75;21188;-83
2022/11/24 11:17:04;;;;;;;10.25;5.22;;;27.70;98.20;;;;;;1867829;75;21139;-83
2022/11/24 11:19:40;;;;;;;9.63;5.55;;;27.70;98.20;;;;;;1871781;75;21148;-86
2022/11/24 11:22:30;;;;;;;9.95;6.37;;;27.70;98.30;;;;;;1858692;75;21125;-83
2022/11/24 11:25:15;;;;;;;16.00;7.28;;;27.70;98.30;;;;;;1863686;76;21130;-83
2022/11/24 11:27:49;;;;;;;14.80;7.67;;;27.70;98.40;;;;;;1868034;75;21090;-81
2022/11/24 11:30:22;;;;;;;20.45;8.95;;;27.70;98.50;;;;;;1868695;74;21595;-85
2022/11/24 11:32:58;;;;;;;14.83;8.38;;;27.70;98.60;;;;;;1891610;75;21148;-85
2022/11/24 11:35:32;;;;;;;19.42;9.15;;;27.70;98.70;;;;;;1897848;74;21223;-85
2022/11/24 11:38:05;;;;;;;16.17;7.95;;;27.60;98.70;;;;;;1854737;76;21177;-85
2022/11/24 11:40:38;;;;;;;14.50;8.15;;;27.60;98.70;;;;;;1867770;75;21578;-85
2022/11/24 11:43:15;;;;;;;13.53;8.93;;;27.60;98.90;;;;;;1871649;74;21247;-85
2022/11/24 11:45:51;;;;;;;13.40;8.18;;;27.60;98.90;;;;;;1859028;76;21071;-84
2022/11/24 11:48:28;;;;;;;16.00;7.53;;;27.60;99.00;;;;;;1860378;76;22310;-85
2022/11/24 11:51:12;;;;;;;21.52;8.38;;;27.60;99.10;;;;;;1859126;75;21663;-85
2022/11/24 11:53:50;;;;;;;;;;;27.60;99.20;;;;;;1860689;76;21071;-86
2022/11/24 12:00:00;;;;;;;10.38;6.60;;;27.60;99.10;;;;;;1791855;78;21253;-84
2022/11/24 12:02:42;;;;;;;11.17;6.90;;;27.60;99.10;;;;;;1807223;77;21736;-84
2022/11/24 12:05:30;;;;;;;11.75;7.30;;;27.50;99.10;;;;;;1806582;77;21059;-84
2022/11/24 12:08:15;;;;;;;12.13;7.00;;;27.50;99.10;;;;;;1815607;77;21163;-85
2022/11/24 12:11:07;;;;;;;12.70;7.78;;;27.50;99.20;;;;;;1819863;77;21091;-85
2022/11/24 12:14:23;;;;;;;12.90;7.65;;;27.50;99.10;;;;;;1751457;79;21167;-86
2022/11/24 12:17:02;;;;;;;11.73;7.40;;;27.40;99.10;;;;;;1788379;79;21224;-84
2022/11/24 12:23:03;;;;;;;10.98;7.78;;;27.40;99.20;;;;;;1767480;79;21223;-86
2022/11/24 12:25:43;;;;;;;15.68;8.00;;;27.40;99.40;;;;;;1793479;79;21144;-86
2022/11/24 12:28:39;;;;;;;12.80;9.45;;;27.40;99.40;;;;;;1751049;79;21141;-86
2022/11/24 12:31:36;;;;;;;13.58;8.65;;;27.40;99.60;;;;;;1799445;77;21219;-86
2022/11/24 12:34:35;;;;;;;14.70;9.30;;;27.40;99.80;;;;;;1793762;77;21696;-86
2022/11/24 12:37:32;;;;;;;13.18;9.43;;;27.30;99.70;;;;;;1788256;76;21155;-86
2022/11/24 12:40:40;;;;;;;18.17;9.98;;;27.30;99.90;;;;;;1778406;79;21605;-86
2022/11/24 12:43:35;;;;;;;17.42;9.60;;;27.30;99.90;;;;;;1791681;78;21171;-86
2022/11/24 12:46:22;;;;;;;15.83;10.55;;;27.30;99.90;;;;;;1783352;78;21187;-85
2022/11/24 12:49:19;;;;;;;13.53;10.63;;;27.30;99.90;;;;;;1784683;79;21624;-84
2022/11/24 12:51:53;;;;;;;18.17;12.47;;;27.30;99.90;;;;;;1789086;79;21127;-86
2022/11/24 12:54:40;;;;;;;;;;;;;;;;;;;;;
2022/11/24 12:57:29;;;;;;;15.65;11.30;;;27.30;99.90;;;;;;1784662;79;21592;-88
2022/11/24 13:00:21;;;;;;;15.78;10.48;;;27.30;99.90;;;;;;1773197;79;21188;-87
2022/11/24 13:03:23;;;;;;;12.28;9.13;;;27.20;99.90;;;;;;1780320;79;21157;-87
2022/11/24 13:06:30;;;;;;;13.48;9.93;;;27.20;99.90;;;;;;1778411;78;21162;-88
2022/11/24 13:09:08;;;;;;;15.83;11.25;;;27.20;99.90;;;;;;1782073;78;21732;-87
2022/11/24 13:11:42;;;;;;;14.68;10.05;;;27.20;99.90;;;;;;1817881;75;21161;-88
2022/11/24 13:14:19;;;;;;;9.98;8.93;;;27.20;99.90;;;;;;1850392;77;21079;-88
2022/11/24 13:16:57;;;;;;;11.80;9.70;;;27.20;99.90;;;;;;1855253;76;21200;-88
2022/11/24 13:19:45;;;;;;;10.90;9.75;;;27.10;99.90;;;;;;1843569;77;21236;-87
2022/11/24 13:22:25;;;;;;;15.00;10.35;;;27.10;99.90;;;;;;1847108;77;21101;-90
2022/11/24 13:25:13;;;;;;;13.22;9.83;;;27.10;99.90;;;;;;1856306;76;21134;-87
2022/11/24 13:27:56;;;;;;;12.45;10.60;;;27.10;99.90;;;;;;1856578;76;21135;-87
2022/11/24 13:30:36;;;;;;;12.78;8.68;;;27.10;99.90;;;;;;1867150;76;21181;-87
2022/11/24 13:33:18;;;;;;;14.68;9.83;;;27.10;99.90;;;;;;1775993;78;21186;-88
2022/11/24 13:36:06;;;;;;;14.23;10.23;;;27.10;99.90;;;;;;1829506;77;21067;-87
2022/11/24 13:38:45;;;;;;;13.78;10.98;;;27.10;99.90;;;;;;1836898;76;21181;-88